TimeEST,TemperatureF,Dew PointF,Humidity,Sea Level PressureIn,VisibilityMPH,Wind Direction,Wind SpeedMPH,Gust SpeedMPH,PrecipitationIn,Events,Conditions,WindDirDegrees,DateUTC
12:53 AM,73.9,69.1,85,30.05,10.0,SE,13.8,-,N/A,,Mostly Cloudy,130,2014-01-05 05:53:00
1:53 AM,73.0,66.9,81,30.05,10.0,ESE,8.1,-,N/A,,Scattered Clouds,120,2014-01-05 06:53:00
2:53 AM,73.0,66.0,79,30.03,10.0,SE,8.1,-,N/A,,Clear,140,2014-01-05 07:53:00
3:53 AM,73.0,64.9,76,30.00,10.0,SE,8.1,-,N/A,,Clear,140,2014-01-05 08:53:00
4:53 AM,73.9,68.0,82,29.99,10.0,SE,12.7,21.9,N/A,,Clear,130,2014-01-05 09:53:00
5:53 AM,73.0,69.1,87,29.96,10.0,SE,21.9,28.8,N/A,,Clear,130,2014-01-05 10:53:00
6:53 AM,73.9,70.0,87,30.00,10.0,SE,15.0,27.6,N/A,,Partly Cloudy,140,2014-01-05 11:53:00
7:30 AM,75.2,69.8,83,30.02,10.0,SSE,18.4,23.0,N/A,,Mostly Cloudy,150,2014-01-05 12:30:00
7:53 AM,75.0,70.0,84,30.04,10.0,SSE,15.0,23.0,N/A,,Mostly Cloudy,160,2014-01-05 12:53:00
8:53 AM,75.9,70.0,82,30.05,10.0,SSE,11.5,19.6,N/A,,Mostly Cloudy,160,2014-01-05 13:53:00
9:53 AM,79.0,71.1,77,30.06,10.0,South,9.2,-,N/A,,Scattered Clouds,170,2014-01-05 14:53:00
10:53 AM,80.1,71.1,74,30.04,10.0,SSE,17.3,24.2,N/A,,Partly Cloudy,160,2014-01-05 15:53:00
11:53 AM,80.1,71.1,74,30.02,10.0,SSE,13.8,23.0,N/A,,Scattered Clouds,150,2014-01-05 16:53:00
12:53 PM,78.1,72.0,81,29.99,7.0,SSE,16.1,21.9,0.08,Rain,Light Rain,150,2014-01-05 17:53:00
1:53 PM,78.1,71.1,79,29.97,10.0,South,17.3,-,N/A,,Scattered Clouds,170,2014-01-05 18:53:00
2:53 PM,77.0,69.1,76,29.99,10.0,SSE,15.0,19.6,N/A,,Mostly Cloudy,160,2014-01-05 19:53:00
3:26 PM,77.0,71.6,83,29.98,10.0,SSE,8.1,-,N/A,,Mostly Cloudy,150,2014-01-05 20:26:00
3:53 PM,75.0,70.0,84,29.99,10.0,South,9.2,17.3,N/A,,Overcast,190,2014-01-05 20:53:00
4:53 PM,75.9,66.9,74,29.99,10.0,South,8.1,-,N/A,,Mostly Cloudy,190,2014-01-05 21:53:00
5:53 PM,75.9,66.9,74,30.00,10.0,SW,6.9,-,N/A,,Overcast,230,2014-01-05 22:53:00
6:53 PM,75.0,66.0,73,30.01,10.0,SSW,4.6,-,N/A,,Overcast,200,2014-01-05 23:53:00
7:53 PM,73.9,66.0,76,30.03,10.0,SSW,3.5,-,N/A,,Clear,210,2014-01-06 00:53:00
8:53 PM,73.0,66.0,79,30.04,10.0,Calm,Calm,-,N/A,,Scattered Clouds,0,2014-01-06 01:53:00
9:53 PM,70.0,66.0,87,30.04,10.0,Calm,Calm,-,N/A,,Partly Cloudy,0,2014-01-06 02:53:00
10:53 PM,70.0,66.9,90,30.03,10.0,South,3.5,-,N/A,,Clear,180,2014-01-06 03:53:00
11:53 PM,70.0,68.0,93,30.01,10.0,South,3.5,-,N/A,,Clear,190,2014-01-06 04:53:00